sensor_id;sensor_type;location;lat;lon;timestamp;P1;durP1;ratioP1;P2;durP2;ratioP2
15312;SDS011;7757;52.626;4.746;2023-11-21T00:00:49;10.85;;;2.65;;
15312;SDS011;7757;52.626;4.746;2023-11-21T00:03:14;12.10;;;2.85;;
15312;SDS011;7757;52.626;4.746;2023-11-21T00:05:43;10.63;;;2.85;;
15312;SDS011;7757;52.626;4.746;2023-11-21T00:08:09;9.40;;;2.53;;
15312;SDS011;7757;52.626;4.746;2023-11-21T00:10:35;9.70;;;2.50;;
15312;SDS011;7757;52.626;4.746;2023-11-21T00:13:03;12.95;;;2.85;;
15312;SDS011;7757;52.626;4.746;2023-11-21T00:15:29;11.80;;;2.72;;
15312;SDS011;7757;52.626;4.746;2023-11-21T00:17:54;11.95;;;2.83;;
15312;SDS011;7757;52.626;4.746;2023-11-21T00:20:20;12.27;;;2.92;;
15312;SDS011;7757;52.626;4.746;2023-11-21T00:22:45;11.48;;;2.65;;
15312;SDS011;7757;52.626;4.746;2023-11-21T00:25:11;8.57;;;2.40;;
15312;SDS011;7757;52.626;4.746;2023-11-21T00:27:39;11.18;;;2.90;;
15312;SDS011;7757;52.626;4.746;2023-11-21T00:30:05;8.82;;;2.50;;
15312;SDS011;7757;52.626;4.746;2023-11-21T00:32:31;9.02;;;2.72;;
15312;SDS011;7757;52.626;4.746;2023-11-21T00:34:56;8.98;;;2.20;;
15312;SDS011;7757;52.626;4.746;2023-11-21T00:37:22;10.60;;;2.60;;
15312;SDS011;7757;52.626;4.746;2023-11-21T00:39:49;9.48;;;2.60;;
15312;SDS011;7757;52.626;4.746;2023-11-21T00:42:14;10.77;;;2.55;;
15312;SDS011;7757;52.626;4.746;2023-11-21T00:44:39;9.40;;;2.67;;
15312;SDS011;7757;52.626;4.746;2023-11-21T00:47:05;12.10;;;2.55;;
15312;SDS011;7757;52.626;4.746;2023-11-21T00:49:30;9.43;;;2.30;;
15312;SDS011;7757;52.626;4.746;2023-11-21T00:51:56;8.85;;;2.35;;
15312;SDS011;7757;52.626;4.746;2023-11-21T00:54:23;8.85;;;2.17;;
15312;SDS011;7757;52.626;4.746;2023-11-21T00:56:48;9.35;;;2.50;;
15312;SDS011;7757;52.626;4.746;2023-11-21T00:59:14;8.70;;;2.50;;
15312;SDS011;7757;52.626;4.746;2023-11-21T01:01:39;8.20;;;2.20;;
15312;SDS011;7757;52.626;4.746;2023-11-21T01:04:05;10.27;;;2.35;;
15312;SDS011;7757;52.626;4.746;2023-11-21T01:06:32;9.32;;;2.30;;
15312;SDS011;7757;52.626;4.746;2023-11-21T01:08:57;9.80;;;2.40;;
15312;SDS011;7757;52.626;4.746;2023-11-21T01:11:23;9.88;;;2.42;;
15312;SDS011;7757;52.626;4.746;2023-11-21T01:13:48;9.05;;;2.03;;
15312;SDS011;7757;52.626;4.746;2023-11-21T01:16:13;9.75;;;2.28;;
15312;SDS011;7757;52.626;4.746;2023-11-21T01:18:39;10.07;;;2.20;;
15312;SDS011;7757;52.626;4.746;2023-11-21T01:21:04;8.50;;;2.20;;
15312;SDS011;7757;52.626;4.746;2023-11-21T01:23:30;10.73;;;2.30;;
15312;SDS011;7757;52.626;4.746;2023-11-21T01:25:56;8.32;;;1.90;;
15312;SDS011;7757;52.626;4.746;2023-11-21T01:28:21;9.73;;;2.40;;
15312;SDS011;7757;52.626;4.746;2023-11-21T01:30:47;9.00;;;2.25;;
15312;SDS011;7757;52.626;4.746;2023-11-21T01:33:13;8.95;;;2.38;;
15312;SDS011;7757;52.626;4.746;2023-11-21T01:35:40;7.93;;;2.00;;
15312;SDS011;7757;52.626;4.746;2023-11-21T01:38:06;8.50;;;2.13;;
15312;SDS011;7757;52.626;4.746;2023-11-21T01:40:33;8.63;;;2.10;;
15312;SDS011;7757;52.626;4.746;2023-11-21T01:42:59;9.43;;;1.92;;
15312;SDS011;7757;52.626;4.746;2023-11-21T01:45:24;8.05;;;1.95;;
15312;SDS011;7757;52.626;4.746;2023-11-21T01:47:50;8.85;;;1.95;;
15312;SDS011;7757;52.626;4.746;2023-11-21T01:50:16;10.38;;;2.17;;
15312;SDS011;7757;52.626;4.746;2023-11-21T01:52:44;8.45;;;2.05;;
15312;SDS011;7757;52.626;4.746;2023-11-21T01:55:11;7.60;;;1.88;;
15312;SDS011;7757;52.626;4.746;2023-11-21T01:57:37;7.38;;;1.92;;
15312;SDS011;7757;52.626;4.746;2023-11-21T02:00:03;8.65;;;1.90;;
15312;SDS011;7757;52.626;4.746;2023-11-21T02:02:43;9.27;;;2.17;;
15312;SDS011;7757;52.626;4.746;2023-11-21T02:05:13;8.55;;;2.08;;
15312;SDS011;7757;52.626;4.746;2023-11-21T02:07:40;9.27;;;2.13;;
15312;SDS011;7757;52.626;4.746;2023-11-21T02:10:06;7.38;;;1.73;;
15312;SDS011;7757;52.626;4.746;2023-11-21T02:12:33;10.13;;;2.05;;
15312;SDS011;7757;52.626;4.746;2023-11-21T02:15:00;9.00;;;2.10;;
15312;SDS011;7757;52.626;4.746;2023-11-21T02:17:26;7.63;;;2.00;;
15312;SDS011;7757;52.626;4.746;2023-11-21T02:19:52;7.03;;;1.73;;
15312;SDS011;7757;52.626;4.746;2023-11-21T02:22:18;8.20;;;1.70;;
15312;SDS011;7757;52.626;4.746;2023-11-21T02:24:45;7.47;;;2.00;;
15312;SDS011;7757;52.626;4.746;2023-11-21T02:27:11;7.00;;;1.83;;
15312;SDS011;7757;52.626;4.746;2023-11-21T02:29:38;6.72;;;1.77;;
15312;SDS011;7757;52.626;4.746;2023-11-21T02:32:04;9.13;;;1.95;;
15312;SDS011;7757;52.626;4.746;2023-11-21T02:34:30;7.30;;;1.88;;
15312;SDS011;7757;52.626;4.746;2023-11-21T02:36:56;6.78;;;1.60;;
15312;SDS011;7757;52.626;4.746;2023-11-21T02:39:22;8.52;;;1.70;;
15312;SDS011;7757;52.626;4.746;2023-11-21T02:41:47;5.93;;;1.60;;
15312;SDS011;7757;52.626;4.746;2023-11-21T02:44:13;7.85;;;1.92;;
15312;SDS011;7757;52.626;4.746;2023-11-21T02:46:39;6.35;;;1.73;;
15312;SDS011;7757;52.626;4.746;2023-11-21T02:49:05;8.90;;;1.90;;
15312;SDS011;7757;52.626;4.746;2023-11-21T02:51:32;6.68;;;1.80;;
15312;SDS011;7757;52.626;4.746;2023-11-21T02:53:58;6.30;;;1.63;;
15312;SDS011;7757;52.626;4.746;2023-11-21T02:56:27;7.85;;;1.80;;
15312;SDS011;7757;52.626;4.746;2023-11-21T02:58:55;7.90;;;1.58;;
15312;SDS011;7757;52.626;4.746;2023-11-21T03:01:21;6.68;;;1.60;;
15312;SDS011;7757;52.626;4.746;2023-11-21T03:03:47;7.45;;;1.55;;
15312;SDS011;7757;52.626;4.746;2023-11-21T03:06:16;9.90;;;1.70;;
15312;SDS011;7757;52.626;4.746;2023-11-21T03:08:44;9.43;;;1.65;;
15312;SDS011;7757;52.626;4.746;2023-11-21T03:11:10;6.55;;;1.73;;
15312;SDS011;7757;52.626;4.746;2023-11-21T03:13:36;9.45;;;1.90;;
15312;SDS011;7757;52.626;4.746;2023-11-21T03:16:01;8.23;;;1.90;;
15312;SDS011;7757;52.626;4.746;2023-11-21T03:18:26;6.15;;;1.67;;
15312;SDS011;7757;52.626;4.746;2023-11-21T03:20:54;5.60;;;1.55;;
15312;SDS011;7757;52.626;4.746;2023-11-21T03:23:19;6.22;;;1.60;;
15312;SDS011;7757;52.626;4.746;2023-11-21T03:25:45;7.60;;;1.83;;
15312;SDS011;7757;52.626;4.746;2023-11-21T03:28:10;6.97;;;1.60;;
15312;SDS011;7757;52.626;4.746;2023-11-21T03:30:37;5.38;;;1.40;;
15312;SDS011;7757;52.626;4.746;2023-11-21T03:33:02;6.97;;;1.70;;
15312;SDS011;7757;52.626;4.746;2023-11-21T03:35:28;7.22;;;1.60;;
15312;SDS011;7757;52.626;4.746;2023-11-21T03:37:53;7.60;;;1.65;;
15312;SDS011;7757;52.626;4.746;2023-11-21T03:40:19;6.82;;;1.60;;
15312;SDS011;7757;52.626;4.746;2023-11-21T03:42:46;6.78;;;1.60;;
15312;SDS011;7757;52.626;4.746;2023-11-21T03:45:12;6.65;;;1.50;;
15312;SDS011;7757;52.626;4.746;2023-11-21T03:47:38;9.35;;;1.60;;
15312;SDS011;7757;52.626;4.746;2023-11-21T03:50:04;10.10;;;1.70;;
15312;SDS011;7757;52.626;4.746;2023-11-21T03:52:30;6.72;;;1.50;;
15312;SDS011;7757;52.626;4.746;2023-11-21T03:54:55;6.32;;;1.55;;
15312;SDS011;7757;52.626;4.746;2023-11-21T03:57:21;6.78;;;1.30;;
15312;SDS011;7757;52.626;4.746;2023-11-21T03:59:46;4.65;;;1.35;;
15312;SDS011;7757;52.626;4.746;2023-11-21T04:02:12;4.60;;;1.40;;
15312;SDS011;7757;52.626;4.746;2023-11-21T04:04:37;4.95;;;1.45;;
15312;SDS011;7757;52.626;4.746;2023-11-21T04:07:03;5.10;;;1.45;;
15312;SDS011;7757;52.626;4.746;2023-11-21T04:09:29;5.05;;;1.38;;
15312;SDS011;7757;52.626;4.746;2023-11-21T04:11:54;4.88;;;1.30;;
15312;SDS011;7757;52.626;4.746;2023-11-21T04:14:20;5.63;;;1.30;;
15312;SDS011;7757;52.626;4.746;2023-11-21T04:16:46;6.68;;;1.42;;
15312;SDS011;7757;52.626;4.746;2023-11-21T04:19:11;7.03;;;1.58;;
15312;SDS011;7757;52.626;4.746;2023-11-21T04:21:39;4.32;;;1.17;;
15312;SDS011;7757;52.626;4.746;2023-11-21T04:24:06;6.18;;;1.35;;
15312;SDS011;7757;52.626;4.746;2023-11-21T04:26:32;4.60;;;1.23;;
15312;SDS011;7757;52.626;4.746;2023-11-21T04:28:57;5.65;;;1.35;;
15312;SDS011;7757;52.626;4.746;2023-11-21T04:31:22;6.07;;;1.25;;
15312;SDS011;7757;52.626;4.746;2023-11-21T04:33:48;4.63;;;1.13;;
15312;SDS011;7757;52.626;4.746;2023-11-21T04:36:13;4.55;;;1.17;;
15312;SDS011;7757;52.626;4.746;2023-11-21T04:38:39;5.13;;;1.30;;
15312;SDS011;7757;52.626;4.746;2023-11-21T04:41:04;4.78;;;1.25;;
15312;SDS011;7757;52.626;4.746;2023-11-21T04:43:31;5.28;;;1.40;;
15312;SDS011;7757;52.626;4.746;2023-11-21T04:45:56;3.13;;;1.20;;
15312;SDS011;7757;52.626;4.746;2023-11-21T04:48:21;4.85;;;1.30;;
15312;SDS011;7757;52.626;4.746;2023-11-21T04:50:47;6.60;;;1.25;;
15312;SDS011;7757;52.626;4.746;2023-11-21T04:53:12;5.57;;;1.40;;
15312;SDS011;7757;52.626;4.746;2023-11-21T04:55:39;7.32;;;1.30;;
15312;SDS011;7757;52.626;4.746;2023-11-21T04:58:05;5.05;;;1.15;;
15312;SDS011;7757;52.626;4.746;2023-11-21T05:00:31;4.22;;;1.10;;
15312;SDS011;7757;52.626;4.746;2023-11-21T05:02:56;3.10;;;1.00;;
15312;SDS011;7757;52.626;4.746;2023-11-21T05:05:22;7.78;;;1.95;;
15312;SDS011;7757;52.626;4.746;2023-11-21T05:07:47;3.83;;;1.20;;
15312;SDS011;7757;52.626;4.746;2023-11-21T05:10:14;6.32;;;1.25;;
15312;SDS011;7757;52.626;4.746;2023-11-21T05:12:40;5.45;;;1.38;;
15312;SDS011;7757;52.626;4.746;2023-11-21T05:15:07;4.82;;;1.33;;
15312;SDS011;7757;52.626;4.746;2023-11-21T05:17:36;2.95;;;0.90;;
15312;SDS011;7757;52.626;4.746;2023-11-21T05:20:03;5.30;;;1.20;;
15312;SDS011;7757;52.626;4.746;2023-11-21T05:22:33;7.07;;;1.20;;
15312;SDS011;7757;52.626;4.746;2023-11-21T05:24:59;5.82;;;1.30;;
15312;SDS011;7757;52.626;4.746;2023-11-21T05:27:25;7.18;;;1.30;;
15312;SDS011;7757;52.626;4.746;2023-11-21T05:29:50;4.68;;;1.00;;
15312;SDS011;7757;52.626;4.746;2023-11-21T05:32:15;5.75;;;1.15;;
15312;SDS011;7757;52.626;4.746;2023-11-21T05:34:42;5.72;;;1.23;;
15312;SDS011;7757;52.626;4.746;2023-11-21T05:37:08;7.65;;;1.48;;
15312;SDS011;7757;52.626;4.746;2023-11-21T05:39:34;4.68;;;1.17;;
15312;SDS011;7757;52.626;4.746;2023-11-21T05:42:01;4.57;;;1.20;;
15312;SDS011;7757;52.626;4.746;2023-11-21T05:44:26;4.30;;;1.30;;
15312;SDS011;7757;52.626;4.746;2023-11-21T05:46:52;6.75;;;1.30;;
15312;SDS011;7757;52.626;4.746;2023-11-21T05:49:17;4.78;;;1.20;;
15312;SDS011;7757;52.626;4.746;2023-11-21T05:51:46;8.35;;;1.67;;
15312;SDS011;7757;52.626;4.746;2023-11-21T05:54:12;3.88;;;0.93;;
15312;SDS011;7757;52.626;4.746;2023-11-21T05:56:37;6.47;;;1.27;;
15312;SDS011;7757;52.626;4.746;2023-11-21T05:59:03;4.55;;;1.10;;
15312;SDS011;7757;52.626;4.746;2023-11-21T06:01:28;5.47;;;1.10;;
15312;SDS011;7757;52.626;4.746;2023-11-21T06:03:54;7.15;;;1.20;;
15312;SDS011;7757;52.626;4.746;2023-11-21T06:06:20;5.95;;;1.10;;
15312;SDS011;7757;52.626;4.746;2023-11-21T06:08:48;6.80;;;1.50;;
15312;SDS011;7757;52.626;4.746;2023-11-21T06:11:13;6.35;;;1.55;;
15312;SDS011;7757;52.626;4.746;2023-11-21T06:13:39;6.07;;;1.20;;
15312;SDS011;7757;52.626;4.746;2023-11-21T06:16:04;4.50;;;1.10;;
15312;SDS011;7757;52.626;4.746;2023-11-21T06:18:30;3.72;;;1.05;;
15312;SDS011;7757;52.626;4.746;2023-11-21T06:20:55;2.80;;;1.13;;
15312;SDS011;7757;52.626;4.746;2023-11-21T06:23:21;4.90;;;1.50;;
15312;SDS011;7757;52.626;4.746;2023-11-21T06:25:46;5.30;;;1.10;;
15312;SDS011;7757;52.626;4.746;2023-11-21T06:28:13;3.70;;;1.23;;
15312;SDS011;7757;52.626;4.746;2023-11-21T06:30:42;5.53;;;1.00;;
15312;SDS011;7757;52.626;4.746;2023-11-21T06:33:09;5.95;;;1.10;;
15312;SDS011;7757;52.626;4.746;2023-11-21T06:35:34;8.60;;;1.17;;
15312;SDS011;7757;52.626;4.746;2023-11-21T06:38:00;6.43;;;1.20;;
15312;SDS011;7757;52.626;4.746;2023-11-21T06:40:25;5.70;;;1.38;;
15312;SDS011;7757;52.626;4.746;2023-11-21T06:42:50;10.00;;;1.95;;
15312;SDS011;7757;52.626;4.746;2023-11-21T06:45:16;6.78;;;1.30;;
15312;SDS011;7757;52.626;4.746;2023-11-21T06:47:43;4.18;;;1.02;;
15312;SDS011;7757;52.626;4.746;2023-11-21T06:50:08;5.70;;;1.25;;
15312;SDS011;7757;52.626;4.746;2023-11-21T06:52:35;8.55;;;1.40;;
15312;SDS011;7757;52.626;4.746;2023-11-21T06:55:00;5.80;;;1.33;;
15312;SDS011;7757;52.626;4.746;2023-11-21T06:57:26;6.32;;;1.30;;
15312;SDS011;7757;52.626;4.746;2023-11-21T06:59:51;7.63;;;1.55;;
15312;SDS011;7757;52.626;4.746;2023-11-21T07:02:17;4.75;;;1.20;;
15312;SDS011;7757;52.626;4.746;2023-11-21T07:04:46;8.93;;;1.30;;
15312;SDS011;7757;52.626;4.746;2023-11-21T07:07:12;8.10;;;1.60;;
15312;SDS011;7757;52.626;4.746;2023-11-21T07:09:38;5.32;;;1.25;;
15312;SDS011;7757;52.626;4.746;2023-11-21T07:12:04;8.48;;;1.20;;
15312;SDS011;7757;52.626;4.746;2023-11-21T07:14:32;3.70;;;1.15;;
15312;SDS011;7757;52.626;4.746;2023-11-21T07:16:58;9.38;;;1.50;;
15312;SDS011;7757;52.626;4.746;2023-11-21T07:19:24;7.28;;;1.40;;
15312;SDS011;7757;52.626;4.746;2023-11-21T07:21:49;7.30;;;1.30;;
15312;SDS011;7757;52.626;4.746;2023-11-21T07:24:18;6.80;;;1.30;;
15312;SDS011;7757;52.626;4.746;2023-11-21T07:26:43;5.70;;;1.30;;
15312;SDS011;7757;52.626;4.746;2023-11-21T07:29:09;8.13;;;1.60;;
15312;SDS011;7757;52.626;4.746;2023-11-21T07:31:36;5.18;;;1.25;;
15312;SDS011;7757;52.626;4.746;2023-11-21T07:34:03;10.77;;;1.70;;
15312;SDS011;7757;52.626;4.746;2023-11-21T07:36:30;8.80;;;2.03;;
15312;SDS011;7757;52.626;4.746;2023-11-21T07:38:55;10.40;;;1.70;;
15312;SDS011;7757;52.626;4.746;2023-11-21T07:41:20;9.50;;;1.90;;
15312;SDS011;7757;52.626;4.746;2023-11-21T07:43:46;7.63;;;1.58;;
15312;SDS011;7757;52.626;4.746;2023-11-21T07:46:12;13.90;;;1.77;;
15312;SDS011;7757;52.626;4.746;2023-11-21T07:48:38;13.23;;;1.85;;
15312;SDS011;7757;52.626;4.746;2023-11-21T07:51:04;9.50;;;2.10;;
15312;SDS011;7757;52.626;4.746;2023-11-21T07:53:30;14.18;;;2.20;;
15312;SDS011;7757;52.626;4.746;2023-11-21T07:56:02;9.60;;;1.63;;
15312;SDS011;7757;52.626;4.746;2023-11-21T07:58:29;7.28;;;2.17;;
15312;SDS011;7757;52.626;4.746;2023-11-21T08:00:54;10.18;;;1.90;;
15312;SDS011;7757;52.626;4.746;2023-11-21T08:03:19;9.70;;;1.63;;
15312;SDS011;7757;52.626;4.746;2023-11-21T08:05:46;9.88;;;1.80;;
15312;SDS011;7757;52.626;4.746;2023-11-21T08:08:11;10.75;;;1.60;;
15312;SDS011;7757;52.626;4.746;2023-11-21T08:10:37;6.95;;;1.33;;
15312;SDS011;7757;52.626;4.746;2023-11-21T08:13:02;7.95;;;1.60;;
15312;SDS011;7757;52.626;4.746;2023-11-21T08:15:29;8.15;;;1.60;;
15312;SDS011;7757;52.626;4.746;2023-11-21T08:17:54;12.10;;;1.70;;
15312;SDS011;7757;52.626;4.746;2023-11-21T08:20:20;7.47;;;1.50;;
15312;SDS011;7757;52.626;4.746;2023-11-21T08:22:47;12.10;;;1.80;;
15312;SDS011;7757;52.626;4.746;2023-11-21T08:25:13;8.90;;;1.60;;
15312;SDS011;7757;52.626;4.746;2023-11-21T08:27:39;10.75;;;1.60;;
15312;SDS011;7757;52.626;4.746;2023-11-21T08:30:04;6.80;;;1.50;;
15312;SDS011;7757;52.626;4.746;2023-11-21T08:32:30;8.00;;;1.63;;
15312;SDS011;7757;52.626;4.746;2023-11-21T08:34:58;8.48;;;1.60;;
15312;SDS011;7757;52.626;4.746;2023-11-21T08:37:26;6.68;;;1.38;;
15312;SDS011;7757;52.626;4.746;2023-11-21T08:39:52;10.35;;;1.55;;
15312;SDS011;7757;52.626;4.746;2023-11-21T08:42:18;8.32;;;1.70;;
15312;SDS011;7757;52.626;4.746;2023-11-21T08:44:44;10.88;;;1.85;;
15312;SDS011;7757;52.626;4.746;2023-11-21T08:47:10;8.32;;;1.65;;
15312;SDS011;7757;52.626;4.746;2023-11-21T08:49:36;10.50;;;1.60;;
15312;SDS011;7757;52.626;4.746;2023-11-21T08:52:02;7.38;;;1.50;;
15312;SDS011;7757;52.626;4.746;2023-11-21T08:54:30;6.05;;;1.42;;
15312;SDS011;7757;52.626;4.746;2023-11-21T08:56:56;9.02;;;1.60;;
15312;SDS011;7757;52.626;4.746;2023-11-21T08:59:24;6.90;;;1.40;;
15312;SDS011;7757;52.626;4.746;2023-11-21T09:01:50;7.25;;;1.50;;
15312;SDS011;7757;52.626;4.746;2023-11-21T09:04:15;6.57;;;1.40;;
15312;SDS011;7757;52.626;4.746;2023-11-21T09:06:41;10.18;;;1.63;;
15312;SDS011;7757;52.626;4.746;2023-11-21T09:09:06;6.38;;;1.50;;
15312;SDS011;7757;52.626;4.746;2023-11-21T09:11:33;6.82;;;1.48;;
15312;SDS011;7757;52.626;4.746;2023-11-21T09:13:59;6.40;;;1.48;;
15312;SDS011;7757;52.626;4.746;2023-11-21T09:16:26;6.22;;;1.30;;
15312;SDS011;7757;52.626;4.746;2023-11-21T09:18:52;5.93;;;1.52;;
15312;SDS011;7757;52.626;4.746;2023-11-21T09:21:17;6.95;;;1.30;;
15312;SDS011;7757;52.626;4.746;2023-11-21T09:23:46;8.40;;;1.70;;
15312;SDS011;7757;52.626;4.746;2023-11-21T09:26:12;7.63;;;1.60;;
15312;SDS011;7757;52.626;4.746;2023-11-21T09:28:37;6.32;;;1.45;;
15312;SDS011;7757;52.626;4.746;2023-11-21T09:31:04;7.75;;;1.52;;
15312;SDS011;7757;52.626;4.746;2023-11-21T09:33:30;9.05;;;1.60;;
15312;SDS011;7757;52.626;4.746;2023-11-21T09:35:56;6.22;;;1.50;;
15312;SDS011;7757;52.626;4.746;2023-11-21T09:38:22;8.43;;;1.60;;
15312;SDS011;7757;52.626;4.746;2023-11-21T09:40:48;10.70;;;1.75;;
15312;SDS011;7757;52.626;4.746;2023-11-21T09:43:17;6.38;;;1.60;;
15312;SDS011;7757;52.626;4.746;2023-11-21T09:45:45;9.02;;;1.63;;
15312;SDS011;7757;52.626;4.746;2023-11-21T09:48:19;8.02;;;1.60;;
15312;SDS011;7757;52.626;4.746;2023-11-21T09:50:46;7.22;;;1.40;;
15312;SDS011;7757;52.626;4.746;2023-11-21T09:55:41;9.60;;;1.90;;
15312;SDS011;7757;52.626;4.746;2023-11-21T09:58:09;8.77;;;1.88;;
15312;SDS011;7757;52.626;4.746;2023-11-21T10:00:37;7.03;;;1.45;;
15312;SDS011;7757;52.626;4.746;2023-11-21T10:03:09;6.85;;;1.45;;
15312;SDS011;7757;52.626;4.746;2023-11-21T10:05:35;7.30;;;1.60;;
15312;SDS011;7757;52.626;4.746;2023-11-21T10:08:01;5.95;;;1.60;;
15312;SDS011;7757;52.626;4.746;2023-11-21T10:10:37;6.95;;;1.30;;
15312;SDS011;7757;52.626;4.746;2023-11-21T10:13:07;7.30;;;1.38;;
15312;SDS011;7757;52.626;4.746;2023-11-21T10:15:37;6.75;;;1.50;;
15312;SDS011;7757;52.626;4.746;2023-11-21T10:18:03;6.07;;;1.50;;
15312;SDS011;7757;52.626;4.746;2023-11-21T10:20:31;6.93;;;1.70;;
15312;SDS011;7757;52.626;4.746;2023-11-21T10:22:58;6.13;;;1.50;;
15312;SDS011;7757;52.626;4.746;2023-11-21T10:25:26;7.45;;;1.45;;
15312;SDS011;7757;52.626;4.746;2023-11-21T10:27:57;6.43;;;1.40;;
15312;SDS011;7757;52.626;4.746;2023-11-21T10:33:02;6.90;;;1.27;;
15312;SDS011;7757;52.626;4.746;2023-11-21T10:38:16;7.55;;;1.67;;
15312;SDS011;7757;52.626;4.746;2023-11-21T10:40:46;5.30;;;1.40;;
15312;SDS011;7757;52.626;4.746;2023-11-21T10:43:13;4.43;;;1.10;;
15312;SDS011;7757;52.626;4.746;2023-11-21T10:45:40;6.68;;;1.50;;
15312;SDS011;7757;52.626;4.746;2023-11-21T10:48:09;4.05;;;1.25;;
15312;SDS011;7757;52.626;4.746;2023-11-21T10:50:40;5.13;;;1.30;;
15312;SDS011;7757;52.626;4.746;2023-11-21T10:53:06;5.93;;;1.60;;
15312;SDS011;7757;52.626;4.746;2023-11-21T10:55:32;6.47;;;1.35;;
15312;SDS011;7757;52.626;4.746;2023-11-21T10:57:59;6.22;;;1.40;;
15312;SDS011;7757;52.626;4.746;2023-11-21T11:00:29;8.30;;;1.60;;
15312;SDS011;7757;52.626;4.746;2023-11-21T11:02:56;7.05;;;1.40;;
15312;SDS011;7757;52.626;4.746;2023-11-21T11:05:24;8.00;;;1.90;;
15312;SDS011;7757;52.626;4.746;2023-11-21T11:07:57;4.97;;;1.40;;
15312;SDS011;7757;52.626;4.746;2023-11-21T11:10:27;5.78;;;1.42;;
15312;SDS011;7757;52.626;4.746;2023-11-21T11:12:54;3.97;;;1.15;;
15312;SDS011;7757;52.626;4.746;2023-11-21T11:15:22;6.88;;;1.50;;
15312;SDS011;7757;52.626;4.746;2023-11-21T11:17:48;5.55;;;1.23;;
15312;SDS011;7757;52.626;4.746;2023-11-21T11:20:15;6.93;;;1.30;;
15312;SDS011;7757;52.626;4.746;2023-11-21T11:29:00;4.72;;;1.33;;
15312;SDS011;7757;52.626;4.746;2023-11-21T11:31:51;6.68;;;1.35;;
15312;SDS011;7757;52.626;4.746;2023-11-21T11:34:30;7.53;;;1.48;;
15312;SDS011;7757;52.626;4.746;2023-11-21T11:37:02;5.50;;;1.40;;
15312;SDS011;7757;52.626;4.746;2023-11-21T11:39:31;7.97;;;1.45;;
15312;SDS011;7757;52.626;4.746;2023-11-21T11:42:05;10.00;;;1.60;;
15312;SDS011;7757;52.626;4.746;2023-11-21T11:47:27;6.15;;;1.50;;
15312;SDS011;7757;52.626;4.746;2023-11-21T11:55:06;6.32;;;1.60;;
15312;SDS011;7757;52.626;4.746;2023-11-21T11:57:35;6.35;;;1.38;;
15312;SDS011;7757;52.626;4.746;2023-11-21T12:00:11;10.38;;;1.60;;
15312;SDS011;7757;52.626;4.746;2023-11-21T12:02:41;8.63;;;1.50;;
15312;SDS011;7757;52.626;4.746;2023-11-21T12:05:11;5.25;;;1.30;;
15312;SDS011;7757;52.626;4.746;2023-11-21T12:07:44;7.93;;;1.40;;
15312;SDS011;7757;52.626;4.746;2023-11-21T12:10:15;6.85;;;1.40;;
15312;SDS011;7757;52.626;4.746;2023-11-21T12:12:47;6.30;;;1.35;;
15312;SDS011;7757;52.626;4.746;2023-11-21T12:17:43;5.13;;;1.30;;
15312;SDS011;7757;52.626;4.746;2023-11-21T12:20:09;8.20;;;1.60;;
15312;SDS011;7757;52.626;4.746;2023-11-21T12:22:45;6.32;;;1.52;;
15312;SDS011;7757;52.626;4.746;2023-11-21T12:25:18;7.28;;;1.60;;
15312;SDS011;7757;52.626;4.746;2023-11-21T12:27:45;5.72;;;1.40;;
15312;SDS011;7757;52.626;4.746;2023-11-21T12:30:11;5.32;;;1.40;;
15312;SDS011;7757;52.626;4.746;2023-11-21T12:32:42;6.03;;;1.20;;
15312;SDS011;7757;52.626;4.746;2023-11-21T12:35:09;8.20;;;1.63;;
15312;SDS011;7757;52.626;4.746;2023-11-21T12:37:36;8.43;;;1.67;;
15312;SDS011;7757;52.626;4.746;2023-11-21T12:40:05;4.85;;;1.40;;
15312;SDS011;7757;52.626;4.746;2023-11-21T12:42:33;8.10;;;1.50;;
15312;SDS011;7757;52.626;4.746;2023-11-21T12:47:55;6.97;;;1.38;;
15312;SDS011;7757;52.626;4.746;2023-11-21T12:50:33;7.07;;;1.58;;
15312;SDS011;7757;52.626;4.746;2023-11-21T12:53:06;5.72;;;1.38;;
15312;SDS011;7757;52.626;4.746;2023-11-21T12:55:37;6.45;;;1.30;;
15312;SDS011;7757;52.626;4.746;2023-11-21T12:58:04;5.95;;;1.67;;
15312;SDS011;7757;52.626;4.746;2023-11-21T13:00:37;8.15;;;1.45;;
15312;SDS011;7757;52.626;4.746;2023-11-21T13:03:09;6.30;;;1.30;;
15312;SDS011;7757;52.626;4.746;2023-11-21T13:05:38;4.00;;;1.23;;
15312;SDS011;7757;52.626;4.746;2023-11-21T13:08:09;7.35;;;1.40;;
15312;SDS011;7757;52.626;4.746;2023-11-21T13:10:42;8.05;;;1.48;;
15312;SDS011;7757;52.626;4.746;2023-11-21T13:13:11;8.80;;;1.50;;
15312;SDS011;7757;52.626;4.746;2023-11-21T13:15:47;7.65;;;1.75;;
15312;SDS011;7757;52.626;4.746;2023-11-21T13:18:16;8.00;;;1.70;;
15312;SDS011;7757;52.626;4.746;2023-11-21T13:20:42;7.22;;;1.50;;
15312;SDS011;7757;52.626;4.746;2023-11-21T13:23:11;6.50;;;1.48;;
15312;SDS011;7757;52.626;4.746;2023-11-21T13:25:37;7.40;;;1.40;;
15312;SDS011;7757;52.626;4.746;2023-11-21T13:28:06;8.57;;;1.90;;
15312;SDS011;7757;52.626;4.746;2023-11-21T13:30:32;7.47;;;1.90;;
15312;SDS011;7757;52.626;4.746;2023-11-21T13:33:00;7.65;;;1.70;;
15312;SDS011;7757;52.626;4.746;2023-11-21T13:35:27;12.15;;;2.00;;
15312;SDS011;7757;52.626;4.746;2023-11-21T13:38:02;11.63;;;1.88;;
15312;SDS011;7757;52.626;4.746;2023-11-21T13:40:31;14.63;;;1.70;;
15312;SDS011;7757;52.626;4.746;2023-11-21T13:42:59;15.77;;;2.78;;
15312;SDS011;7757;52.626;4.746;2023-11-21T13:45:29;16.15;;;2.33;;
15312;SDS011;7757;52.626;4.746;2023-11-21T13:47:54;10.65;;;2.15;;
15312;SDS011;7757;52.626;4.746;2023-11-21T13:50:24;13.60;;;2.38;;
15312;SDS011;7757;52.626;4.746;2023-11-21T13:52:55;12.20;;;2.13;;
15312;SDS011;7757;52.626;4.746;2023-11-21T13:55:21;8.57;;;2.08;;
15312;SDS011;7757;52.626;4.746;2023-11-21T13:57:50;11.93;;;2.42;;
15312;SDS011;7757;52.626;4.746;2023-11-21T14:00:17;10.70;;;2.20;;
15312;SDS011;7757;52.626;4.746;2023-11-21T14:03:02;10.27;;;2.03;;
15312;SDS011;7757;52.626;4.746;2023-11-21T14:05:31;12.23;;;2.63;;
15312;SDS011;7757;52.626;4.746;2023-11-21T14:07:58;11.38;;;1.90;;
15312;SDS011;7757;52.626;4.746;2023-11-21T14:10:31;9.68;;;2.00;;
15312;SDS011;7757;52.626;4.746;2023-11-21T14:13:07;9.70;;;2.20;;
15312;SDS011;7757;52.626;4.746;2023-11-21T14:15:35;9.32;;;2.00;;
15312;SDS011;7757;52.626;4.746;2023-11-21T14:18:06;9.55;;;2.08;;
15312;SDS011;7757;52.626;4.746;2023-11-21T14:20:42;8.57;;;1.83;;
15312;SDS011;7757;52.626;4.746;2023-11-21T14:23:09;10.77;;;2.30;;
15312;SDS011;7757;52.626;4.746;2023-11-21T14:25:36;8.40;;;2.08;;
15312;SDS011;7757;52.626;4.746;2023-11-21T14:28:05;9.98;;;2.22;;
15312;SDS011;7757;52.626;4.746;2023-11-21T14:30:32;11.68;;;2.10;;
15312;SDS011;7757;52.626;4.746;2023-11-21T14:33:00;9.52;;;1.80;;
15312;SDS011;7757;52.626;4.746;2023-11-21T14:35:27;6.88;;;1.75;;
15312;SDS011;7757;52.626;4.746;2023-11-21T14:37:52;10.32;;;1.80;;
15312;SDS011;7757;52.626;4.746;2023-11-21T14:40:18;10.30;;;1.85;;
15312;SDS011;7757;52.626;4.746;2023-11-21T14:42:49;9.65;;;2.03;;
15312;SDS011;7757;52.626;4.746;2023-11-21T14:45:17;9.20;;;1.88;;
15312;SDS011;7757;52.626;4.746;2023-11-21T14:47:45;10.55;;;1.92;;
15312;SDS011;7757;52.626;4.746;2023-11-21T14:53:04;8.60;;;2.00;;
15312;SDS011;7757;52.626;4.746;2023-11-21T14:55:34;7.68;;;1.70;;
15312;SDS011;7757;52.626;4.746;2023-11-21T14:58:03;8.82;;;1.98;;
15312;SDS011;7757;52.626;4.746;2023-11-21T15:00:29;10.23;;;2.13;;
15312;SDS011;7757;52.626;4.746;2023-11-21T15:03:10;9.23;;;2.72;;
15312;SDS011;7757;52.626;4.746;2023-11-21T15:05:51;7.95;;;1.75;;
15312;SDS011;7757;52.626;4.746;2023-11-21T15:08:18;7.72;;;1.77;;
15312;SDS011;7757;52.626;4.746;2023-11-21T15:10:51;7.93;;;1.67;;
15312;SDS011;7757;52.626;4.746;2023-11-21T15:13:20;9.40;;;2.05;;
15312;SDS011;7757;52.626;4.746;2023-11-21T15:15:49;10.88;;;1.95;;
15312;SDS011;7757;52.626;4.746;2023-11-21T15:18:15;9.73;;;2.10;;
15312;SDS011;7757;52.626;4.746;2023-11-21T15:20:40;9.98;;;2.00;;
15312;SDS011;7757;52.626;4.746;2023-11-21T15:23:07;7.90;;;1.83;;
15312;SDS011;7757;52.626;4.746;2023-11-21T15:25:33;8.18;;;1.88;;
15312;SDS011;7757;52.626;4.746;2023-11-21T15:28:00;9.38;;;1.80;;
15312;SDS011;7757;52.626;4.746;2023-11-21T15:30:26;8.80;;;2.25;;